Knoxville, TN

12:29 PM EDT en Octubre 02, 2014 (GMT -0400)
Fountain City | Change Station
CLOSE
Current Station
Estación meteorológica personal
Location: Knoxville, TN
Altura: 1288 ft
Estaciones meteorológicas cercanas

Alt 1288 ft 36.06 °N, 83.91 °W | Updated 9 minutes ago

Despejado
Despejado
82.8 ° F
Sensación térmica 83 ° F
N
4.0
Viento Variable Viento desde Norte
Gusts 6.0 mph

Hoy
Alta -- | Baja -- ° F
--% Posibilidad de precipitaciones
Ayer
Alta -- | Baja -- ° F
Precip. -- pul
7:31 AM 7:17 PM
Cuarto creciente, 60% visible
Presión 30.08 pul
Visibilidad 10.0 Millas
Nubes Baja 3600 ft
Índice de calor 83 ° F
Punto de rocío 59 ° F
Humedad 45%
Precipitaciones 0.00 pul
Espesor de la nieve No disponible.
UV 6 de una escala de 12
Polen 5.00 de una escala de 12
Ozono Buena
Flu Activity No disponible.
METAR KTYS 021553Z 00000KT 10SM FEW036 24/14 A3011 RMK AO2 SLP186 T02440144

More Conditions Fewer Conditions

Presión 30.08 pul
Visibilidad 10.0 Millas
Nubes Baja 3600 ft
Índice de calor 83 ° F
Punto de rocío 59 ° F
Humedad 45%
Precipitaciones 0.00 pul
Espesor de la nieve No disponible.
UV 6 de una escala de 12
Polen 5.00 de una escala de 12
Ozono Buena
Flu Activity No disponible.
METAR KTYS 021553Z 00000KT 10SM FEW036 24/14 A3011 RMK AO2 SLP186 T02440144

More Conditions Fewer Conditions

10-Day Weather Forecast

Almanac

Astronomía

Oct. 02, 2014 Salida Puesta
Hora real 7:31 AM EDT 7:17 PM EDT
Crepúsculo civil 7:05 AM EDT 7:43 PM EDT
Crepúsculo náutico 6:36 AM EDT 8:12 PM EDT
Crepúsculo astronómico 6:06 AM EDT 8:42 PM EDT
Luna 3:13 PM EDT 12:57 AM EDT
Horas de luz 12h 37m
Horas de luz
11h 46m
Tomorrow will be 2m 15s shorter.
Cuarto creciente, 60% of the Moon is Illuminated
Hoy
Cuarto creciente
Oct 8
Luna llena
Oct 15
Cuarto menguante
Oct 23
Nueva
Oct 30
Cuarto creciente

Extremos de hoy

Máximos del estado Bajos del estado

Community

WunderPhotos

Upload Photos

1,758,290 ¡fotos cargadas!

WunderBlogs® & News

Nearby

Calidad del aire

  Calidad del aire Índice AQ Contaminante
Ayer Moderada
PM2.5
Ayer Buena
OZONE
Real Buena
OZONE
Jueves Moderada
PM2.5
Jueves Buena
OZONE

Grosos de nieve

Estación Profundido Altura
No tenemos constancia de nieve nueva.

Actividad de terremotos

Ciudad Distance Mag. Tiempo y dato
No hay informes recientes de la actividad sísmica.
Magnitud mínima muestra es 2,5.

Temperaturas de aguas costeras

Lugar Temperatura
Sin partes meteorológicos de las estaciones

Estaciones meteorológicas cercanas